Time;durP1;ratioP1;P1;durP2;ratioP2;P2;SDS_P1;SDS_P2;PMS_P1;PMS_P2;Temp;Humidity;BMP_temperature;BMP_pressure;BME280_temperature;BME280_humidity;BME280_pressure;Samples;Min_cycle;Max_cycle;Signal;HPM_P1;HPM_P2
2021/12/08 00:00:53;;;;;;;11.73;3.83;;;0.00;99.90;;;;;;5096306;28;20098;-69
2021/12/08 00:03:23;;;;;;;11.73;4.40;;;0.10;99.90;;;;;;5094812;28;20087;-69
2021/12/08 00:05:50;;;;;;;16.80;3.30;;;0.40;99.90;;;;;;5097588;28;20396;-69
2021/12/08 00:08:21;;;;;;;12.50;3.20;;;0.50;99.90;;;;;;5098976;28;20048;-69
2021/12/08 00:13:02;;;;;;;8.37;3.07;;;0.60;99.90;;;;;;5097852;28;20052;-69
2021/12/08 00:13:40;;;;;;;8.57;2.87;;;0.60;99.90;;;;;;5096105;28;20442;-68
2021/12/08 00:16:09;;;;;;;13.65;2.85;;;0.70;99.90;;;;;;5096460;28;20143;-68
2021/12/08 00:18:44;;;;;;;7.77;2.67;;;0.70;99.90;;;;;;5094668;28;20048;-67
2021/12/08 00:21:11;;;;;;;10.90;3.23;;;0.60;99.90;;;;;;5091586;28;20047;-68
2021/12/08 00:23:39;;;;;;;9.07;3.10;;;0.60;99.90;;;;;;5091054;28;20102;-68
2021/12/08 00:26:05;;;;;;;14.87;3.70;;;0.60;99.90;;;;;;5090840;28;20101;-68
2021/12/08 00:28:33;;;;;;;12.83;3.10;;;0.50;99.90;;;;;;5090636;28;20048;-67
2021/12/08 00:31:02;;;;;;;11.03;2.90;;;0.50;99.90;;;;;;5091294;28;20044;-68
2021/12/08 00:33:30;;;;;;;11.37;3.67;;;0.50;99.90;;;;;;5090941;28;20043;-67
2021/12/08 00:36:02;;;;;;;10.73;3.63;;;0.50;99.90;;;;;;5090664;28;20488;-67
2021/12/08 00:38:30;;;;;;;8.37;3.33;;;0.60;99.90;;;;;;5091259;28;20138;-67
2021/12/08 00:40:58;;;;;;;12.43;4.07;;;0.60;99.90;;;;;;5090612;28;20504;-67
2021/12/08 00:43:25;;;;;;;12.47;4.47;;;0.50;99.90;;;;;;5090764;28;20052;-71
2021/12/08 00:45:53;;;;;;;7.93;3.33;;;0.60;99.90;;;;;;5090400;28;20125;-67
2021/12/08 00:48:21;;;;;;;8.30;3.73;;;0.60;99.90;;;;;;5091567;28;20069;-68
2021/12/08 00:50:49;;;;;;;11.00;3.87;;;0.60;99.90;;;;;;5112524;28;20074;-68
2021/12/08 00:53:17;;;;;;;9.13;3.13;;;0.60;99.90;;;;;;5101453;28;20048;-68
2021/12/08 00:55:44;;;;;;;9.03;3.70;;;0.60;99.90;;;;;;5090474;28;20446;-69
2021/12/08 00:58:12;;;;;;;8.67;3.33;;;0.60;99.90;;;;;;5091241;28;20052;-68
2021/12/08 01:00:42;;;;;;;9.87;3.30;;;0.60;99.90;;;;;;5091177;28;20044;-68
2021/12/08 01:03:10;;;;;;;10.20;3.97;;;0.50;99.90;;;;;;5090740;28;20048;-67
2021/12/08 01:05:39;;;;;;;9.90;3.80;;;0.60;99.90;;;;;;5090434;28;20052;-68
2021/12/08 01:08:07;;;;;;;7.20;3.30;;;0.60;99.90;;;;;;5090613;28;20139;-69
2021/12/08 01:10:38;;;;;;;14.13;4.20;;;0.60;99.90;;;;;;5092459;28;20105;-68
2021/12/08 01:13:08;;;;;;;10.70;3.53;;;0.60;99.90;;;;;;5106573;28;20052;-69
2021/12/08 01:15:36;;;;;;;11.27;4.53;;;0.60;99.90;;;;;;5107826;28;20052;-69
2021/12/08 01:18:03;;;;;;;9.07;3.63;;;0.60;99.90;;;;;;5108440;28;20048;-71
2021/12/08 01:20:30;;;;;;;10.73;3.93;;;0.60;99.90;;;;;;5109209;28;20048;-69
2021/12/08 01:22:57;;;;;;;9.53;4.20;;;0.60;99.90;;;;;;5109641;28;20245;-68
2021/12/08 01:25:24;;;;;;;15.97;4.90;;;0.60;99.90;;;;;;5109535;28;20040;-69
2021/12/08 01:27:53;;;;;;;12.13;4.37;;;0.60;99.90;;;;;;5109040;28;20048;-68
2021/12/08 01:30:20;;;;;;;11.20;4.10;;;0.60;99.90;;;;;;5109814;28;20068;-68
2021/12/08 01:32:47;;;;;;;11.37;4.70;;;0.60;99.90;;;;;;5091715;28;20044;-68
2021/12/08 01:35:15;;;;;;;12.17;5.17;;;0.70;99.90;;;;;;5090165;28;20470;-69
2021/12/08 01:37:42;;;;;;;13.30;4.73;;;0.70;99.90;;;;;;5090372;28;20051;-68
2021/12/08 01:40:12;;;;;;;9.70;4.93;;;0.60;99.90;;;;;;5089857;28;20047;-68
2021/12/08 01:42:44;;;;;;;13.57;5.53;;;0.60;99.90;;;;;;5090221;28;20492;-68
2021/12/08 01:48:02;;;;;;;13.33;6.03;;;0.60;99.90;;;;;;5090059;28;20081;-68
2021/12/08 01:50:29;;;;;;;10.40;5.30;;;0.70;99.90;;;;;;5090048;28;20107;-68
2021/12/08 01:52:56;;;;;;;16.30;5.50;;;0.60;99.90;;;;;;5089989;28;20431;-70
2021/12/08 01:55:23;;;;;;;12.07;5.87;;;0.60;99.90;;;;;;5089559;28;20040;-68
2021/12/08 01:57:50;;;;;;;14.47;5.97;;;0.50;99.90;;;;;;5090152;28;20484;-68
2021/12/08 02:00:27;;;;;;;14.07;5.50;;;0.60;99.90;;;;;;5092731;28;20470;-68
2021/12/08 02:02:54;;;;;;;10.23;5.25;;;0.60;99.90;;;;;;5093571;28;20052;-68
2021/12/08 02:05:21;;;;;;;15.47;5.97;;;0.60;99.90;;;;;;5093028;28;20056;-68
2021/12/08 02:07:49;;;;;;;19.07;7.07;;;0.60;99.90;;;;;;5093635;28;20089;-68
2021/12/08 02:10:16;;;;;;;15.80;6.70;;;0.60;99.90;;;;;;5093064;28;20109;-68
2021/12/08 02:12:43;;;;;;;13.27;6.30;;;0.70;99.90;;;;;;5093025;28;20048;-68
2021/12/08 02:15:13;;;;;;;15.03;7.17;;;0.80;99.90;;;;;;5092912;28;20080;-68
2021/12/08 02:17:42;;;;;;;13.30;6.77;;;1.10;99.90;;;;;;5093391;28;20055;-68
2021/12/08 02:20:12;;;;;;;12.80;6.47;;;1.10;99.90;;;;;;5093179;28;20120;-68
2021/12/08 02:22:40;;;;;;;13.47;6.53;;;1.10;99.90;;;;;;5093136;28;20044;-68
2021/12/08 02:25:10;;;;;;;15.03;6.63;;;1.20;99.90;;;;;;5091997;28;20109;-68
2021/12/08 02:27:38;;;;;;;14.83;6.77;;;1.30;99.90;;;;;;5093021;28;20500;-68
2021/12/08 02:30:14;;;;;;;15.40;6.27;;;1.40;99.90;;;;;;5093066;28;20458;-67
2021/12/08 02:46:47;;;;;;;14.17;6.30;;;1.50;99.90;;;;;;5092035;28;20066;-67
2021/12/08 02:49:15;;;;;;;14.60;5.87;;;1.40;99.90;;;;;;5092802;28;20169;-67
2021/12/08 02:51:43;;;;;;;12.10;5.97;;;1.50;99.90;;;;;;5092291;28;20489;-67
2021/12/08 02:54:12;;;;;;;11.63;5.73;;;1.50;99.90;;;;;;5092371;28;20051;-67
2021/12/08 02:56:39;;;;;;;13.17;5.80;;;1.50;99.90;;;;;;5091715;28;20052;-67
2021/12/08 02:59:06;;;;;;;17.37;5.90;;;1.50;99.90;;;;;;5092365;28;20044;-67
2021/12/08 03:01:37;;;;;;;12.57;6.13;;;1.50;99.90;;;;;;5092369;28;20095;-67
2021/12/08 03:04:05;;;;;;;11.00;5.67;;;1.60;99.90;;;;;;5092312;28;20052;-67
2021/12/08 03:06:33;;;;;;;10.97;5.67;;;1.60;99.90;;;;;;5091730;28;20052;-67
2021/12/08 03:09:00;;;;;;;12.10;5.57;;;1.60;99.90;;;;;;5092327;28;20083;-70
2021/12/08 03:11:29;;;;;;;11.27;5.53;;;1.60;99.90;;;;;;5112485;28;20044;-68
2021/12/08 03:14:03;;;;;;;15.00;6.17;;;1.60;99.90;;;;;;5110182;28;20067;-68
2021/12/08 03:16:30;;;;;;;14.10;5.93;;;1.70;99.90;;;;;;5092440;28;20401;-67
2021/12/08 03:18:57;;;;;;;14.37;5.33;;;1.60;99.90;;;;;;5190985;22;20647;-73
2021/12/08 03:21:30;;;;;;;16.13;4.97;;;1.70;99.90;;;;;;5090624;28;20491;-73
2021/12/08 03:24:09;;;;;;;13.57;5.80;;;1.70;99.90;;;;;;5090621;28;20460;-73
2021/12/08 03:26:46;;;;;;;11.03;5.37;;;1.70;99.90;;;;;;5089985;28;20054;-72
2021/12/08 03:29:31;;;;;;;11.33;5.07;;;1.80;99.90;;;;;;5090681;28;20051;-73
2021/12/08 03:32:06;;;;;;;14.17;6.63;;;1.80;99.90;;;;;;5090502;28;20055;-72
2021/12/08 03:34:35;;;;;;;18.70;5.60;;;1.70;99.90;;;;;;5090496;28;20044;-72
2021/12/08 03:37:03;;;;;;;13.93;5.23;;;1.80;99.90;;;;;;5089444;28;20507;-72
2021/12/08 03:39:31;;;;;;;12.90;5.40;;;1.80;99.90;;;;;;5090603;28;20511;-72
2021/12/08 03:41:59;;;;;;;13.73;4.73;;;1.80;99.90;;;;;;5090093;28;20559;-74
2021/12/08 03:44:26;;;;;;;11.53;5.13;;;1.80;99.90;;;;;;5090030;28;20109;-73
2021/12/08 03:46:59;;;;;;;13.13;6.43;;;1.80;99.90;;;;;;5089548;28;20088;-72
2021/12/08 03:49:26;;;;;;;12.93;4.97;;;1.80;99.90;;;;;;5090242;28;20056;-72
2021/12/08 03:51:56;;;;;;;11.90;5.00;;;1.80;99.90;;;;;;5089937;28;20094;-73
2021/12/08 03:54:23;;;;;;;10.63;5.10;;;1.80;99.90;;;;;;5089893;28;20079;-73
2021/12/08 03:56:50;;;;;;;12.00;5.07;;;1.70;99.90;;;;;;5089470;28;20129;-72
2021/12/08 03:59:19;;;;;;;10.10;5.23;;;1.70;99.90;;;;;;5089863;28;20048;-72
2021/12/08 04:01:46;;;;;;;13.60;5.37;;;1.80;99.90;;;;;;5089984;28;20109;-72
2021/12/08 04:04:13;;;;;;;12.57;5.77;;;1.70;99.90;;;;;;5090043;28;20131;-72
2021/12/08 04:06:46;;;;;;;11.63;5.30;;;1.70;99.90;;;;;;5088951;28;20500;-72
2021/12/08 04:09:19;;;;;;;17.50;5.80;;;1.80;99.90;;;;;;5090086;28;20113;-72
2021/12/08 04:11:46;;;;;;;11.90;5.30;;;1.70;99.90;;;;;;5089731;28;20051;-72
2021/12/08 04:14:17;;;;;;;17.80;6.00;;;1.70;99.90;;;;;;5089848;28;20048;-72
2021/12/08 04:16:51;;;;;;;12.57;5.00;;;1.70;99.90;;;;;;5089021;28;20084;-72
2021/12/08 04:19:19;;;;;;;13.33;5.23;;;1.70;99.90;;;;;;5089733;28;20101;-73
2021/12/08 04:21:48;;;;;;;14.87;5.13;;;1.70;99.90;;;;;;5088991;28;20106;-73
2021/12/08 04:24:15;;;;;;;11.30;5.20;;;1.70;99.90;;;;;;5089404;28;20079;-76
2021/12/08 04:26:49;;;;;;;9.73;4.83;;;1.60;99.90;;;;;;5089062;28;20095;-72
2021/12/08 04:29:18;;;;;;;16.93;5.20;;;1.60;99.90;;;;;;5091199;28;20059;-73
2021/12/08 04:31:50;;;;;;;10.80;4.90;;;1.60;99.90;;;;;;5091010;28;20217;-72
2021/12/08 04:34:25;;;;;;;9.93;4.60;;;1.60;99.90;;;;;;5090794;28;20052;-72
2021/12/08 04:36:53;;;;;;;11.70;5.03;;;1.70;99.90;;;;;;5090384;28;20083;-73
2021/12/08 04:39:26;;;;;;;15.30;4.67;;;1.70;99.90;;;;;;5090744;28;20081;-72
2021/12/08 04:42:00;;;;;;;14.00;5.90;;;1.70;99.90;;;;;;5090492;28;20047;-73
2021/12/08 04:44:34;;;;;;;10.50;5.10;;;1.70;99.90;;;;;;5092383;28;20048;-72
2021/12/08 04:47:23;;;;;;;13.77;5.67;;;1.70;99.90;;;;;;5091305;28;20055;-73
2021/12/08 04:50:26;;;;;;;15.27;5.97;;;1.60;99.90;;;;;;5092137;28;20056;-72
2021/12/08 04:53:01;;;;;;;9.60;4.70;;;1.70;99.90;;;;;;5089770;28;20059;-75
2021/12/08 05:03:52;;;;;;;12.80;5.17;;;1.70;99.90;;;;;;5084942;28;20043;-73
2021/12/08 05:06:36;;;;;;;13.47;5.20;;;1.80;99.90;;;;;;5089704;28;20423;-72
2021/12/08 05:09:09;;;;;;;12.87;5.10;;;1.80;99.90;;;;;;5089915;28;20082;-73
2021/12/08 05:11:40;;;;;;;10.13;4.97;;;1.80;99.90;;;;;;5089021;28;20052;-77
2021/12/08 05:14:10;;;;;;;13.23;4.97;;;1.70;99.90;;;;;;5088940;28;20496;-73
2021/12/08 05:16:40;;;;;;;11.27;5.13;;;1.70;99.90;;;;;;5088235;28;20126;-72
2021/12/08 05:19:15;;;;;;;12.80;5.03;;;1.80;99.90;;;;;;5088826;28;20097;-73
2021/12/08 05:21:46;;;;;;;12.87;5.20;;;1.80;99.90;;;;;;5088778;28;20052;-73
2021/12/08 05:24:16;;;;;;;13.80;5.77;;;1.90;99.90;;;;;;5088976;28;20059;-72
2021/12/08 05:26:47;;;;;;;13.43;5.67;;;1.80;99.90;;;;;;5087857;28;20044;-72
2021/12/08 05:29:19;;;;;;;10.77;5.27;;;1.90;99.90;;;;;;5088813;28;20508;-73
2021/12/08 05:31:47;;;;;;;16.67;5.83;;;1.90;99.90;;;;;;5088972;28;20097;-72
2021/12/08 05:34:16;;;;;;;11.83;5.53;;;1.80;99.90;;;;;;5090290;28;20101;-73
2021/12/08 05:36:43;;;;;;;11.73;5.70;;;1.80;99.90;;;;;;5092109;28;20133;-73
2021/12/08 05:39:14;;;;;;;16.43;6.47;;;1.60;99.90;;;;;;5092743;28;20044;-73
2021/12/08 05:41:42;;;;;;;14.13;6.37;;;1.60;99.90;;;;;;5092721;28;20134;-73
2021/12/08 05:44:10;;;;;;;13.50;5.23;;;1.50;99.90;;;;;;5092634;28;20052;-73
2021/12/08 05:46:41;;;;;;;13.97;6.00;;;1.50;99.90;;;;;;5091772;28;20048;-74
2021/12/08 05:49:09;;;;;;;16.87;6.30;;;1.50;99.90;;;;;;5092886;28;20055;-72
2021/12/08 05:51:38;;;;;;;12.53;6.30;;;1.50;99.90;;;;;;5092525;28;20094;-73
2021/12/08 05:54:07;;;;;;;16.10;6.43;;;1.60;99.90;;;;;;5092599;28;20124;-72
2021/12/08 05:56:35;;;;;;;13.10;6.10;;;1.50;99.90;;;;;;5091475;28;20396;-74
2021/12/08 05:59:05;;;;;;;15.03;7.17;;;1.50;99.90;;;;;;5092144;28;20079;-73
2021/12/08 06:01:37;;;;;;;16.40;6.50;;;1.40;99.90;;;;;;5092073;28;20105;-75
2021/12/08 06:04:07;;;;;;;15.00;6.63;;;1.40;99.90;;;;;;5092018;28;20088;-75
2021/12/08 06:06:35;;;;;;;14.37;7.63;;;1.30;99.90;;;;;;5091608;28;20079;-74
2021/12/08 06:09:06;;;;;;;15.60;7.03;;;1.30;99.90;;;;;;5092098;28;20048;-73
2021/12/08 06:11:33;;;;;;;13.70;6.90;;;1.30;99.90;;;;;;5091901;28;20043;-76
2021/12/08 06:14:00;;;;;;;19.13;7.43;;;1.30;99.90;;;;;;5091845;28;20212;-73
2021/12/08 06:16:28;;;;;;;16.90;7.10;;;1.30;99.90;;;;;;5091519;28;20048;-73
2021/12/08 06:18:55;;;;;;;15.30;6.53;;;1.30;99.90;;;;;;5091664;28;20480;-75
2021/12/08 06:21:26;;;;;;;19.83;8.27;;;1.30;99.90;;;;;;5092282;28;20094;-73
2021/12/08 06:23:54;;;;;;;22.00;8.27;;;1.30;99.90;;;;;;5091890;28;20109;-73
2021/12/08 06:26:25;;;;;;;21.40;8.23;;;1.30;99.90;;;;;;5091217;28;20408;-74
2021/12/08 06:28:53;;;;;;;15.77;8.03;;;1.30;99.90;;;;;;5092585;28;20054;-75
2021/12/08 06:31:25;;;;;;;16.33;7.00;;;1.30;99.90;;;;;;5091684;28;20055;-79
2021/12/08 06:33:52;;;;;;;18.33;7.57;;;1.30;99.90;;;;;;5091527;28;20047;-77
2021/12/08 06:36:23;;;;;;;15.67;6.67;;;1.30;99.90;;;;;;5092883;28;20048;-73
2021/12/08 06:38:51;;;;;;;20.07;7.80;;;1.30;99.90;;;;;;5092311;28;20052;-73
2021/12/08 06:41:23;;;;;;;17.50;7.77;;;1.30;99.90;;;;;;5094906;28;20043;-73
2021/12/08 06:43:54;;;;;;;11.87;6.67;;;1.40;99.90;;;;;;5094036;28;20057;-72
2021/12/08 06:46:23;;;;;;;18.60;7.80;;;1.40;99.90;;;;;;5092616;28;20051;-74
2021/12/08 06:48:55;;;;;;;17.10;7.67;;;1.40;99.90;;;;;;5091127;28;20060;-73
2021/12/08 06:51:28;;;;;;;16.03;7.83;;;1.30;99.90;;;;;;5090978;28;20048;-74
2021/12/08 06:53:58;;;;;;;16.63;7.57;;;1.30;99.90;;;;;;5091370;28;20097;-74
2021/12/08 06:56:30;;;;;;;17.03;7.30;;;1.40;99.90;;;;;;5090383;28;20135;-73
2021/12/08 06:59:01;;;;;;;15.00;7.27;;;1.40;99.90;;;;;;5091032;28;20055;-73
2021/12/08 07:01:40;;;;;;;16.37;7.90;;;1.40;99.90;;;;;;5090997;28;20105;-76
2021/12/08 07:04:24;;;;;;;17.33;8.40;;;1.30;99.90;;;;;;5091178;28;20138;-73
2021/12/08 07:07:00;;;;;;;15.57;8.13;;;1.30;99.90;;;;;;5090600;28;20052;-74
2021/12/08 07:09:32;;;;;;;22.00;9.30;;;1.30;99.90;;;;;;5091111;28;20403;-75
2021/12/08 07:12:04;;;;;;;19.27;8.07;;;1.30;99.90;;;;;;5090251;28;20054;-71
2021/12/08 07:14:33;;;;;;;20.57;8.90;;;1.30;99.90;;;;;;5092390;28;20491;-75
2021/12/08 07:17:07;;;;;;;22.63;9.63;;;1.30;99.90;;;;;;5095675;28;20140;-74
2021/12/08 07:19:43;;;;;;;17.57;8.57;;;1.30;99.90;;;;;;5093769;28;20135;-74
2021/12/08 07:22:13;;;;;;;19.27;9.00;;;1.30;99.90;;;;;;5093945;28;20060;-77
2021/12/08 07:24:42;;;;;;;22.57;9.57;;;1.30;99.90;;;;;;5097394;28;20499;-77
2021/12/08 07:27:15;;;;;;;16.27;8.73;;;1.40;99.90;;;;;;5092172;28;20051;-77
2021/12/08 07:29:44;;;;;;;22.87;8.97;;;1.30;99.90;;;;;;5089473;28;20091;-79
2021/12/08 07:32:20;;;;;;;18.77;10.20;;;1.40;99.90;;;;;;5089115;28;20054;-77
2021/12/08 07:34:50;;;;;;;19.47;8.63;;;1.40;99.90;;;;;;5088773;28;20044;-76
2021/12/08 07:37:20;;;;;;;16.63;8.10;;;1.40;99.90;;;;;;5088712;28;20041;-77
2021/12/08 07:39:50;;;;;;;21.97;8.57;;;1.40;99.90;;;;;;5089365;28;20101;-80
2021/12/08 07:42:23;;;;;;;18.87;8.33;;;1.40;99.90;;;;;;5089341;28;20105;-76
2021/12/08 07:44:54;;;;;;;21.23;10.00;;;1.40;99.90;;;;;;5090972;28;20340;-76
2021/12/08 07:47:22;;;;;;;19.23;8.87;;;1.40;99.90;;;;;;5095310;28;20052;-76
2021/12/08 07:49:52;;;;;;;20.93;8.67;;;1.40;99.90;;;;;;5096605;28;20056;-76
2021/12/08 07:52:24;;;;;;;18.67;8.83;;;1.40;99.90;;;;;;5094526;28;20047;-76
2021/12/08 07:54:52;;;;;;;17.87;9.47;;;1.40;99.90;;;;;;5093606;28;20581;-76
2021/12/08 07:57:24;;;;;;;22.00;9.80;;;1.40;99.90;;;;;;5092158;28;20487;-76
2021/12/08 07:59:55;;;;;;;23.63;10.13;;;1.40;99.90;;;;;;5090167;28;20112;-75
2021/12/08 08:02:25;;;;;;;21.93;9.03;;;1.40;99.90;;;;;;5089788;28;20496;-76
2021/12/08 08:04:55;;;;;;;22.47;8.47;;;1.40;99.90;;;;;;5089336;28;20051;-76
2021/12/08 08:07:22;;;;;;;17.83;8.97;;;1.40;99.90;;;;;;5090186;28;20124;-76
2021/12/08 08:09:59;;;;;;;27.30;9.10;;;1.40;99.90;;;;;;5089832;28;20416;-76
2021/12/08 08:12:30;;;;;;;19.60;8.77;;;1.40;99.90;;;;;;5089894;28;20051;-76
2021/12/08 08:15:01;;;;;;;20.60;9.27;;;1.40;99.90;;;;;;5089053;28;20052;-77
2021/12/08 08:17:34;;;;;;;22.30;10.23;;;1.40;99.90;;;;;;5089392;28;20051;-77
2021/12/08 08:20:04;;;;;;;22.63;9.17;;;1.40;99.90;;;;;;5089802;28;20052;-76
2021/12/08 08:22:32;;;;;;;27.20;9.63;;;1.40;99.90;;;;;;5089990;28;20051;-76
2021/12/08 08:25:02;;;;;;;21.63;10.10;;;1.30;99.90;;;;;;5088924;28;20450;-76
2021/12/08 08:27:30;;;;;;;19.37;9.20;;;1.30;99.90;;;;;;5089518;28;20044;-76
2021/12/08 08:29:58;;;;;;;19.27;9.27;;;1.40;99.90;;;;;;5089773;28;20048;-76
2021/12/08 08:32:31;;;;;;;19.23;8.53;;;1.40;99.90;;;;;;5089581;28;20051;-76
2021/12/08 08:35:06;;;;;;;19.27;8.70;;;1.50;99.90;;;;;;5090245;28;20492;-76
2021/12/08 08:37:34;;;;;;;24.50;10.10;;;1.40;99.90;;;;;;5091869;28;20043;-76
2021/12/08 08:40:06;;;;;;;24.17;9.40;;;1.40;99.90;;;;;;5092026;28;20472;-76
2021/12/08 08:42:39;;;;;;;22.97;9.13;;;1.50;99.90;;;;;;5089592;28;20101;-76
2021/12/08 08:45:11;;;;;;;19.67;9.90;;;1.50;99.90;;;;;;5089919;28;20051;-76
2021/12/08 08:47:42;;;;;;;18.43;8.20;;;1.50;99.90;;;;;;5090715;28;20051;-76
2021/12/08 08:50:13;;;;;;;22.20;9.13;;;1.50;99.90;;;;;;5089249;28;20564;-76
2021/12/08 08:52:44;;;;;;;20.70;9.13;;;1.60;99.90;;;;;;5089162;28;20048;-78
2021/12/08 08:55:14;;;;;;;21.17;8.70;;;1.60;99.90;;;;;;5088420;28;20484;-76
2021/12/08 08:57:44;;;;;;;17.47;7.90;;;1.60;99.90;;;;;;5090060;28;20043;-76
2021/12/08 09:00:17;;;;;;;21.13;9.33;;;1.60;99.90;;;;;;5088977;28;20105;-76
2021/12/08 09:02:45;;;;;;;17.00;8.87;;;1.60;99.90;;;;;;5088985;28;20051;-75
2021/12/08 09:05:15;;;;;;;20.27;8.97;;;1.60;99.90;;;;;;5088542;28;20105;-76
2021/12/08 09:07:46;;;;;;;21.93;9.30;;;1.60;99.90;;;;;;5089567;28;20043;-77
2021/12/08 09:10:20;;;;;;;21.83;9.47;;;1.70;99.90;;;;;;5093459;28;20044;-76
2021/12/08 09:12:53;;;;;;;23.03;10.13;;;1.70;99.90;;;;;;5093675;28;20886;-76
2021/12/08 09:15:24;;;;;;;19.97;9.83;;;1.70;99.90;;;;;;5092404;28;20052;-77
2021/12/08 09:17:54;;;;;;;22.03;9.87;;;1.60;99.90;;;;;;5093230;28;20101;-76
2021/12/08 09:20:28;;;;;;;27.23;12.10;;;1.80;99.90;;;;;;5093666;28;20051;-74
2021/12/08 09:22:59;;;;;;;21.70;9.27;;;1.70;99.90;;;;;;5093553;28;20052;-76
2021/12/08 09:25:30;;;;;;;22.87;9.60;;;1.70;99.90;;;;;;5094483;28;20055;-77
2021/12/08 09:28:03;;;;;;;20.87;9.63;;;1.80;99.90;;;;;;5096686;28;20059;-75
2021/12/08 09:30:36;;;;;;;21.03;9.37;;;1.80;99.90;;;;;;5097632;28;20100;-76
2021/12/08 09:33:09;;;;;;;21.37;8.93;;;1.80;99.90;;;;;;5098120;28;20048;-77
2021/12/08 09:35:41;;;;;;;19.07;8.77;;;1.90;99.90;;;;;;5098052;28;20055;-77
2021/12/08 09:38:12;;;;;;;23.93;10.10;;;1.90;99.90;;;;;;5098125;28;20040;-76
2021/12/08 09:40:43;;;;;;;20.53;9.70;;;2.00;99.90;;;;;;5098579;28;20093;-75
2021/12/08 09:43:16;;;;;;;17.77;9.03;;;1.90;99.90;;;;;;5097735;28;20056;-75
2021/12/08 09:45:48;;;;;;;19.40;9.00;;;2.00;99.90;;;;;;5095867;28;20048;-76
2021/12/08 09:48:15;;;;;;;21.67;9.33;;;1.90;99.90;;;;;;5097673;28;20091;-75
2021/12/08 09:50:43;;;;;;;23.27;9.27;;;2.00;99.90;;;;;;5098673;28;20051;-76
2021/12/08 09:53:10;;;;;;;17.87;8.73;;;2.00;99.90;;;;;;5096206;28;20106;-76
2021/12/08 09:55:38;;;;;;;20.67;9.80;;;2.00;99.90;;;;;;5093953;28;20136;-75
2021/12/08 09:58:06;;;;;;;19.53;8.57;;;2.00;99.90;;;;;;5092621;28;20044;-75
2021/12/08 10:00:38;;;;;;;22.60;9.60;;;2.10;99.90;;;;;;5092661;28;20048;-75
2021/12/08 10:03:06;;;;;;;19.13;10.13;;;2.20;99.90;;;;;;5095427;28;20451;-75
2021/12/08 10:05:35;;;;;;;17.93;9.30;;;2.40;99.90;;;;;;5094748;28;20044;-76
2021/12/08 10:08:04;;;;;;;20.87;9.40;;;2.40;99.90;;;;;;5097845;28;20466;-76
2021/12/08 10:10:32;;;;;;;20.00;8.70;;;2.50;99.90;;;;;;5097389;28;20048;-76
2021/12/08 10:12:59;;;;;;;20.60;8.47;;;2.40;99.90;;;;;;5095560;28;20055;-76
2021/12/08 10:15:27;;;;;;;19.80;9.87;;;2.30;99.90;;;;;;5095305;28;20040;-76
2021/12/08 10:17:57;;;;;;;20.47;8.67;;;2.40;99.90;;;;;;5096466;28;20056;-76
2021/12/08 10:20:27;;;;;;;19.67;8.30;;;2.60;99.90;;;;;;5096164;28;20109;-75
2021/12/08 10:23:14;;;;;;;18.07;8.70;;;2.40;99.90;;;;;;5098084;28;20044;-75
2021/12/08 10:25:44;;;;;;;19.23;9.40;;;2.30;99.90;;;;;;5096086;28;20052;-75
2021/12/08 10:28:14;;;;;;;19.93;8.93;;;2.40;99.90;;;;;;5096489;28;20078;-76
2021/12/08 10:30:46;;;;;;;23.00;8.70;;;2.50;99.90;;;;;;5096391;28;20105;-76
2021/12/08 10:33:46;;;;;;;21.00;9.70;;;2.40;99.90;;;;;;5096782;28;20048;-78
2021/12/08 10:36:33;;;;;;;17.77;9.17;;;2.40;99.90;;;;;;5095351;28;20150;-75
2021/12/08 10:39:01;;;;;;;21.47;9.23;;;2.50;99.90;;;;;;5097730;28;20139;-76
2021/12/08 10:41:48;;;;;;;23.83;8.03;;;2.40;99.90;;;;;;5096397;28;20090;-78
2021/12/08 10:44:15;;;;;;;19.33;9.35;;;2.50;99.90;;;;;;5096884;28;20060;-76
2021/12/08 10:46:43;;;;;;;21.07;8.40;;;2.50;99.90;;;;;;5094991;28;20491;-76
2021/12/08 10:49:21;;;;;;;17.80;9.13;;;2.50;99.90;;;;;;5095730;28;20098;-76
2021/12/08 10:54:46;;;;;;;20.95;8.63;;;2.50;99.90;;;;;;5012951;28;20045;-76
2021/12/08 10:57:25;;;;;;;20.53;8.87;;;2.50;99.90;;;;;;5076810;28;20358;-76
2021/12/08 10:59:56;;;;;;;16.30;8.67;;;2.60;99.90;;;;;;5095513;28;20108;-76
2021/12/08 11:02:46;;;;;;;21.77;10.13;;;2.60;99.90;;;;;;5096118;28;20048;-75
2021/12/08 11:05:46;;;;;;;19.03;8.73;;;2.60;99.90;;;;;;5095001;28;20071;-75
2021/12/08 11:08:20;;;;;;;20.00;9.70;;;2.50;99.90;;;;;;5013589;28;20502;-75
2021/12/08 11:10:52;;;;;;;18.53;8.67;;;2.50;99.90;;;;;;5081838;28;20105;-75
2021/12/08 11:13:24;;;;;;;19.43;9.20;;;2.50;99.90;;;;;;5096220;28;20052;-75
2021/12/08 11:16:01;;;;;;;19.33;8.13;;;2.60;99.90;;;;;;5094647;28;20052;-77
2021/12/08 11:18:30;;;;;;;22.23;8.90;;;2.60;99.90;;;;;;5094468;28;20044;-75
2021/12/08 11:21:02;;;;;;;17.70;8.50;;;2.60;99.90;;;;;;5093922;28;20052;-76
2021/12/08 11:23:44;;;;;;;20.83;8.53;;;2.50;99.90;;;;;;5094552;28;20531;-77
2021/12/08 11:26:24;;;;;;;17.93;8.87;;;2.50;99.90;;;;;;5093349;28;20067;-75
2021/12/08 11:29:06;;;;;;;16.67;8.47;;;2.40;99.90;;;;;;5094207;28;20062;-76
2021/12/08 11:31:36;;;;;;;16.50;8.57;;;2.50;99.90;;;;;;5093637;28;20109;-76
2021/12/08 11:34:06;;;;;;;19.13;8.70;;;2.50;99.90;;;;;;5094510;28;20446;-76
2021/12/08 11:36:37;;;;;;;19.83;8.47;;;2.50;99.90;;;;;;5093977;28;20052;-75
2021/12/08 11:39:11;;;;;;;18.47;8.90;;;2.50;99.90;;;;;;5086315;28;20044;-74
2021/12/08 11:41:39;;;;;;;21.83;9.57;;;2.50;99.90;;;;;;5086942;28;20097;-75
2021/12/08 11:44:10;;;;;;;17.97;8.27;;;2.50;99.90;;;;;;5087909;28;20223;-75
2021/12/08 11:46:47;;;;;;;21.03;8.30;;;2.40;99.90;;;;;;5101794;28;20100;-76
2021/12/08 11:49:15;;;;;;;26.17;9.40;;;2.60;99.90;;;;;;5114077;28;20043;-74
2021/12/08 11:51:56;;;;;;;16.70;8.50;;;2.60;99.90;;;;;;5113398;28;20051;-75
2021/12/08 11:54:25;;;;;;;18.47;8.60;;;2.60;99.90;;;;;;5109462;28;20047;-76
2021/12/08 11:56:53;;;;;;;21.03;10.03;;;2.70;99.90;;;;;;5109239;28;20055;-75
2021/12/08 11:59:20;;;;;;;19.37;9.13;;;2.80;99.90;;;;;;5113720;28;20047;-74
2021/12/08 12:01:49;;;;;;;16.53;9.03;;;2.80;99.90;;;;;;5113040;28;20073;-74
2021/12/08 12:04:16;;;;;;;19.30;8.70;;;2.80;99.90;;;;;;5112801;28;20104;-74
2021/12/08 12:06:43;;;;;;;19.80;9.10;;;2.80;99.90;;;;;;5112495;28;20120;-75
2021/12/08 12:09:12;;;;;;;18.13;8.97;;;2.90;99.90;;;;;;5113029;28;20564;-74
2021/12/08 12:11:39;;;;;;;21.50;9.50;;;2.90;99.90;;;;;;5112688;28;20051;-75
2021/12/08 12:14:06;;;;;;;18.97;8.67;;;2.80;99.90;;;;;;5113086;28;20043;-75
2021/12/08 12:16:33;;;;;;;22.10;8.57;;;2.80;99.90;;;;;;5112047;28;20062;-77
2021/12/08 12:19:05;;;;;;;19.37;8.97;;;2.80;99.90;;;;;;5113455;28;20051;-76
2021/12/08 12:21:39;;;;;;;18.23;8.90;;;2.70;99.90;;;;;;5114108;28;20109;-75
2021/12/08 12:24:49;;;;;;;16.37;7.90;;;2.80;99.90;;;;;;5113405;28;20047;-75
2021/12/08 12:27:31;;;;;;;20.03;9.17;;;2.80;99.90;;;;;;5113259;28;20104;-75
2021/12/08 12:30:16;;;;;;;18.60;8.93;;;2.80;99.90;;;;;;5113095;28;20048;-77
2021/12/08 12:32:47;;;;;;;26.13;9.33;;;2.80;99.90;;;;;;5111981;28;20051;-75
2021/12/08 12:35:20;;;;;;;15.43;8.07;;;2.90;99.90;;;;;;5111817;28;20043;-75
2021/12/08 12:37:49;;;;;;;24.93;10.57;;;2.80;99.90;;;;;;5112645;28;20044;-76
2021/12/08 12:40:20;;;;;;;19.03;8.90;;;2.80;99.90;;;;;;5112600;28;20044;-75
2021/12/08 12:42:55;;;;;;;22.17;9.57;;;2.80;99.90;;;;;;5112097;28;20496;-75
2021/12/08 12:45:24;;;;;;;17.37;9.30;;;2.90;99.90;;;;;;5111391;28;20502;-77
2021/12/08 12:48:13;;;;;;;18.33;9.17;;;2.80;99.90;;;;;;5112175;28;20047;-79
2021/12/08 12:50:59;;;;;;;27.13;9.70;;;2.70;99.90;;;;;;5112661;28;20055;-76
2021/12/08 12:53:33;;;;;;;17.10;8.98;;;2.70;99.90;;;;;;5114546;28;20078;-76
2021/12/08 12:56:02;;;;;;;21.73;10.30;;;2.70;99.90;;;;;;5111887;28;20079;-76
2021/12/08 12:58:47;;;;;;;22.03;9.90;;;2.70;99.90;;;;;;5112039;28;20104;-76
2021/12/08 13:01:16;;;;;;;18.30;9.20;;;2.80;99.90;;;;;;5112019;28;20048;-75
2021/12/08 13:03:56;;;;;;;22.83;10.00;;;2.80;99.90;;;;;;5112483;28;20526;-74
2021/12/08 13:06:41;;;;;;;23.47;10.70;;;2.90;99.90;;;;;;5111244;28;20047;-75
2021/12/08 13:09:11;;;;;;;19.73;9.07;;;2.90;99.90;;;;;;5113584;28;20155;-76
2021/12/08 13:11:52;;;;;;;27.57;10.77;;;2.80;99.90;;;;;;5113431;28;20108;-76
2021/12/08 13:14:26;;;;;;;27.43;10.03;;;2.90;99.90;;;;;;5111796;28;20368;-75
2021/12/08 13:17:27;;;;;;;21.47;9.33;;;2.90;99.90;;;;;;5110968;28;20066;-76
2021/12/08 13:19:57;;;;;;;22.53;10.77;;;2.80;99.90;;;;;;5111521;28;20105;-76
2021/12/08 13:23:01;;;;;;;24.87;10.53;;;2.80;99.90;;;;;;5112121;28;20500;-75
2021/12/08 13:25:50;;;;;;;21.30;10.00;;;2.90;99.90;;;;;;5110865;28;20150;-75
2021/12/08 13:28:24;;;;;;;29.73;10.50;;;2.90;99.90;;;;;;5114988;28;20063;-75
2021/12/08 13:30:56;;;;;;;24.13;10.60;;;2.90;99.90;;;;;;5112148;28;20043;-74
2021/12/08 13:33:29;;;;;;;23.53;11.43;;;2.80;99.90;;;;;;5112125;28;20055;-75
2021/12/08 13:35:57;;;;;;;19.83;9.70;;;2.90;99.90;;;;;;5111888;28;20091;-74